createdAt,value
2019-05-18T00:00:12.363Z,96919.61
2019-05-18T00:01:16.163Z,96921.87
2019-05-18T00:02:18.971Z,96921.87
2019-05-18T00:03:22.670Z,96924.89
2019-05-18T00:04:25.515Z,96924.89
2019-05-18T00:05:28.874Z,96925.24
2019-05-18T00:06:31.654Z,96925.24
2019-05-18T00:07:35.160Z,96926.62
2019-05-18T00:08:37.977Z,96926.83
2019-05-18T00:09:41.636Z,96926.83
2019-05-18T00:10:45.803Z,96921.37
2019-05-18T00:11:49.215Z,96910.62
2019-05-18T00:12:52.095Z,96920.27
2019-05-18T00:13:55.882Z,96919.81
2019-05-18T00:14:58.722Z,96922.13
2019-05-18T00:16:02.333Z,96918.50
2019-05-18T00:17:07.895Z,96918.50
2019-05-18T00:18:10.590Z,96918.14
2019-05-18T00:19:13.845Z,96917.14
2019-05-18T00:20:19.551Z,96917.14
2019-05-18T00:21:22.387Z,96919.12
2019-05-18T00:22:26.598Z,96916.61
2019-05-18T00:23:34.444Z,96916.36
2019-05-18T00:24:38.317Z,96916.36
2019-05-18T00:25:41.141Z,96915.41
2019-05-18T00:26:46.736Z,96923.91
2019-05-18T00:27:49.927Z,96925.62
2019-05-18T00:28:53.604Z,96924.14
2019-05-18T00:29:56.476Z,96920.94
2019-05-18T00:30:59.884Z,96920.94
2019-05-18T00:32:03.073Z,96926.27
2019-05-18T00:33:06.535Z,96926.27
2019-05-18T00:34:09.311Z,96916.03
2019-05-18T00:35:13.066Z,96932.06
2019-05-18T00:36:15.908Z,96928.36
2019-05-18T00:37:21.739Z,96928.36
2019-05-18T00:38:25.693Z,96934.03
2019-05-18T00:39:29.154Z,96929.09
2019-05-18T00:40:32.448Z,96927.38
2019-05-18T00:41:36.178Z,96929.14
2019-05-18T00:42:38.999Z,96925.83
2019-05-18T00:43:42.437Z,96923.03
2019-05-18T00:44:45.274Z,96920.63
2019-05-18T00:45:48.602Z,96920.63
2019-05-18T00:46:51.467Z,96917.42
2019-05-18T00:47:55.166Z,96922.97
2019-05-18T00:48:57.995Z,96932.84
2019-05-18T00:50:01.450Z,96928.86
2019-05-18T00:51:04.307Z,96928.09
2019-05-18T00:52:07.771Z,96924.45
2019-05-18T00:53:10.624Z,96918.67
2019-05-18T00:54:14.256Z,96918.67
2019-05-18T00:55:17.075Z,96911.88
2019-05-18T00:56:20.429Z,96915.41
2019-05-18T00:57:23.215Z,96907.49
2019-05-18T00:58:26.676Z,96914.36
2019-05-18T00:59:29.523Z,96909.97
2019-05-18T01:00:37.559Z,96908.92
2019-05-18T01:01:40.726Z,96921.07
2019-05-18T01:02:45.465Z,96926.94
2019-05-18T01:03:48.382Z,96926.94
2019-05-18T01:04:51.789Z,96916.44
2019-05-18T01:05:54.589Z,96915.77
2019-05-18T01:07:01.454Z,96923.20
2019-05-18T01:08:04.405Z,96922.19
2019-05-18T01:09:08.206Z,96922.19
2019-05-18T01:10:11.404Z,96916.08
2019-05-18T01:11:15.201Z,96916.08
2019-05-18T01:12:20.598Z,96918.56
2019-05-18T01:13:24.223Z,96913.00
2019-05-18T01:14:27.021Z,96921.92
2019-05-18T01:15:30.613Z,96921.92
2019-05-18T01:16:33.489Z,96920.52
2019-05-18T01:17:36.957Z,96908.99
2019-05-18T01:18:39.928Z,96909.11
2019-05-18T01:19:43.568Z,96912.96
2019-05-18T01:20:46.535Z,96914.97
2019-05-18T01:21:50.006Z,96914.97
2019-05-18T01:22:52.918Z,96910.45
2019-05-18T01:23:56.355Z,96911.95
2019-05-18T01:24:59.159Z,96905.47
2019-05-18T01:26:02.834Z,96905.47
2019-05-18T01:27:06.652Z,96909.53
2019-05-18T01:28:10.092Z,96901.95
2019-05-18T01:29:13.337Z,96908.30
2019-05-18T01:30:16.681Z,96911.38
2019-05-18T01:31:22.306Z,96909.25
2019-05-18T01:32:27.898Z,96906.43
2019-05-18T01:33:30.471Z,96906.43
2019-05-18T01:34:34.209Z,96906.43
2019-05-18T01:35:51.255Z,96906.43
2019-05-18T01:36:54.602Z,96906.92
2019-05-18T01:37:57.379Z,96909.30
2019-05-18T01:39:01.373Z,96912.93
2019-05-18T01:40:04.180Z,96910.53
2019-05-18T01:41:07.647Z,96910.53
2019-05-18T01:42:10.464Z,96912.47
2019-05-18T01:43:13.969Z,96907.82
2019-05-18T01:44:17.178Z,96906.69
2019-05-18T01:45:24.746Z,96910.99
2019-05-18T01:46:27.546Z,96910.99
2019-05-18T01:47:30.946Z,96907.70
2019-05-18T01:48:34.570Z,96910.99
2019-05-18T01:49:41.911Z,96913.13
2019-05-18T01:50:44.997Z,96912.36
2019-05-18T01:51:50.271Z,96907.88
2019-05-18T01:52:53.622Z,96903.81
2019-05-18T01:53:57.094Z,96911.13
2019-05-18T01:55:01.967Z,96911.13
2019-05-18T01:56:05.141Z,96910.36
2019-05-18T01:57:08.220Z,96909.58
2019-05-18T01:58:19.668Z,96909.58
2019-05-18T01:59:27.847Z,96912.83
2019-05-18T02:00:31.172Z,96912.83
2019-05-18T02:01:48.213Z,96915.54
2019-05-18T02:02:45.655Z,96907.86
2019-05-18T02:03:48.841Z,96914.07
2019-05-18T02:04:52.221Z,96909.41
2019-05-18T02:05:55.008Z,96908.64
2019-05-18T02:06:59.341Z,96908.64
2019-05-18T02:08:02.585Z,96909.30
2019-05-18T02:09:07.354Z,96913.83
2019-05-18T02:10:10.462Z,96902.52
2019-05-18T02:11:13.835Z,96902.52
2019-05-18T02:12:16.641Z,96917.36
2019-05-18T02:13:20.470Z,96908.99
2019-05-18T02:14:23.649Z,96905.81
2019-05-18T02:15:28.169Z,96905.81
2019-05-18T02:16:31.766Z,96905.94
2019-05-18T02:17:35.439Z,96903.92
2019-05-18T02:18:41.749Z,96907.88
2019-05-18T02:19:45.210Z,96906.41
2019-05-18T02:20:48.373Z,96906.41
2019-05-18T02:21:52.074Z,96901.88
2019-05-18T02:22:56.255Z,96895.64
2019-05-18T02:23:59.644Z,96903.38
2019-05-18T02:25:02.708Z,96900.17
2019-05-18T02:26:06.238Z,96894.98
2019-05-18T02:27:09.096Z,96890.13
2019-05-18T02:28:12.625Z,96892.84
2019-05-18T02:29:15.798Z,96892.84
2019-05-18T02:30:19.149Z,96886.73
2019-05-18T02:31:22.147Z,96895.44
2019-05-18T02:32:25.944Z,96891.92
2019-05-18T02:33:28.949Z,96891.92
2019-05-18T02:34:33.590Z,96888.44
2019-05-18T02:35:38.477Z,96888.44
2019-05-18T02:36:41.876Z,96895.98
2019-05-18T02:37:44.737Z,96890.23
2019-05-18T02:38:50.053Z,96890.23
2019-05-18T02:39:55.619Z,96897.36
2019-05-18T02:40:59.339Z,96899.61
2019-05-18T02:42:02.648Z,96894.42
2019-05-18T02:43:05.996Z,96892.61
2019-05-18T02:44:08.869Z,96885.84
2019-05-18T02:45:12.297Z,96896.22
2019-05-18T02:46:15.576Z,96887.73
2019-05-18T02:47:19.332Z,96891.92
2019-05-18T02:48:22.176Z,96888.67
2019-05-18T02:49:25.528Z,96888.67
2019-05-18T02:50:28.389Z,96892.50
2019-05-18T02:51:31.765Z,96888.20
2019-05-18T02:52:34.910Z,96888.09
2019-05-18T02:53:38.827Z,96892.50
2019-05-18T02:54:41.590Z,96886.84
2019-05-18T02:55:46.866Z,96885.72
2019-05-18T02:56:49.753Z,96882.55
2019-05-18T02:57:53.159Z,96882.55
2019-05-18T02:58:56.410Z,96887.11
2019-05-18T03:00:03.202Z,96892.84
2019-05-18T03:01:06.048Z,96892.84
2019-05-18T03:02:10.116Z,96887.53
2019-05-18T03:03:13.502Z,96887.30
2019-05-18T03:04:20.099Z,96887.53
2019-05-18T03:05:25.607Z,96883.23
2019-05-18T03:06:31.865Z,96889.59
2019-05-18T03:07:35.342Z,96887.77
2019-05-18T03:08:40.911Z,96881.11
2019-05-18T03:09:43.752Z,96885.17
2019-05-18T03:10:47.129Z,96885.17
2019-05-18T03:11:50.359Z,96876.27
2019-05-18T03:12:54.331Z,96876.27
2019-05-18T03:13:57.213Z,96881.22
2019-05-18T03:15:00.548Z,96880.17
2019-05-18T03:16:03.337Z,96873.52
2019-05-18T03:17:06.855Z,96872.39
2019-05-18T03:18:09.662Z,96872.39
2019-05-18T03:19:13.437Z,96875.87
2019-05-18T03:20:16.407Z,96880.05
2019-05-18T03:21:19.817Z,96872.38
2019-05-18T03:22:23.068Z,96877.33
2019-05-18T03:23:26.560Z,96879.03
2019-05-18T03:24:30.526Z,96879.03
2019-05-18T03:25:34.170Z,96884.58
2019-05-18T03:26:37.032Z,96879.26
2019-05-18T03:27:40.516Z,96881.73
2019-05-18T03:28:43.511Z,96879.56
2019-05-18T03:29:46.865Z,96882.40
2019-05-18T03:30:52.451Z,96884.34
2019-05-18T03:31:56.137Z,96876.79
2019-05-18T03:32:59.314Z,96880.39
2019-05-18T03:34:02.784Z,96876.09
2019-05-18T03:35:05.589Z,96876.09
2019-05-18T03:36:09.471Z,96876.78
2019-05-18T03:37:12.272Z,96875.55
2019-05-18T03:38:15.942Z,96880.05
2019-05-18T03:39:18.766Z,96880.05
2019-05-18T03:40:22.164Z,96882.34
2019-05-18T03:41:26.171Z,96881.64
2019-05-18T03:42:31.598Z,96881.64
2019-05-18T03:43:34.409Z,96884.45
2019-05-18T03:44:38.194Z,96886.46
2019-05-18T03:45:41.107Z,96877.89
2019-05-18T03:46:44.621Z,96888.58
2019-05-18T03:47:47.502Z,96888.58
2019-05-18T03:48:50.983Z,96887.03
2019-05-18T03:49:54.970Z,96887.59
2019-05-18T03:50:59.138Z,96881.38
2019-05-18T03:52:01.933Z,96887.59
2019-05-18T03:53:05.467Z,96881.41
2019-05-18T03:54:08.575Z,96884.59
2019-05-18T03:55:11.936Z,96885.83
2019-05-18T03:56:35.933Z,96885.83
2019-05-18T03:57:39.190Z,96882.09
2019-05-18T03:58:44.760Z,96881.66
2019-05-18T03:59:47.640Z,96881.66
2019-05-18T04:00:52.128Z,96867.61
2019-05-18T04:01:54.940Z,96875.73
2019-05-18T04:02:58.611Z,96877.89
2019-05-18T04:04:01.517Z,96876.97
2019-05-18T04:05:09.044Z,96874.37
2019-05-18T04:06:11.866Z,96880.03
2019-05-18T04:07:15.243Z,96883.63
2019-05-18T04:08:18.063Z,96880.90
2019-05-18T04:09:21.804Z,96883.31
2019-05-18T04:10:24.637Z,96883.31
2019-05-18T04:11:27.997Z,96878.20
2019-05-18T04:12:30.831Z,96878.20
2019-05-18T04:13:34.186Z,96877.66
2019-05-18T04:14:37.210Z,96880.02
2019-05-18T04:15:41.742Z,96882.14
2019-05-18T04:16:44.552Z,96882.14
2019-05-18T04:17:47.937Z,96879.16
2019-05-18T04:18:53.060Z,96881.98
2019-05-18T04:19:56.483Z,96880.62
2019-05-18T04:20:59.369Z,96886.28
2019-05-18T04:22:03.083Z,96886.28
2019-05-18T04:23:05.932Z,96885.21
2019-05-18T04:24:09.405Z,96884.80
2019-05-18T04:25:12.237Z,96893.10
2019-05-18T04:26:15.573Z,96895.94
2019-05-18T04:27:19.798Z,96890.84
2019-05-18T04:28:24.887Z,96890.84
2019-05-18T04:29:27.745Z,96891.23
2019-05-18T04:30:31.110Z,96891.45
2019-05-18T04:31:33.999Z,96891.87
2019-05-18T04:32:37.375Z,96888.28
2019-05-18T04:33:40.258Z,96891.80
2019-05-18T04:34:43.896Z,96893.11
2019-05-18T04:35:46.701Z,96899.90
2019-05-18T04:36:54.291Z,96890.09
2019-05-18T04:37:57.120Z,96891.08
2019-05-18T04:39:00.472Z,96895.55
2019-05-18T04:40:03.318Z,96895.48
2019-05-18T04:41:07.077Z,96898.77
2019-05-18T04:42:10.037Z,96898.77
2019-05-18T04:43:13.593Z,96897.99
2019-05-18T04:44:16.707Z,96904.83
2019-05-18T04:45:21.295Z,96904.83
2019-05-18T04:46:24.307Z,96894.61
2019-05-18T04:47:27.688Z,96896.98
2019-05-18T04:48:32.159Z,96891.61
2019-05-18T04:49:35.523Z,96880.97
2019-05-18T04:50:39.569Z,96892.56
2019-05-18T04:51:44.152Z,96898.10
2019-05-18T04:52:46.996Z,96898.10
2019-05-18T04:53:50.708Z,96896.72
2019-05-18T04:54:56.437Z,96897.59
2019-05-18T04:56:01.829Z,96893.29
2019-05-18T04:57:04.503Z,96893.29
2019-05-18T04:58:11.705Z,96897.69
2019-05-18T04:59:15.268Z,96897.66
2019-05-18T05:00:19.334Z,96897.66
2019-05-18T05:01:22.171Z,96891.75
2019-05-18T05:02:25.542Z,96900.19
2019-05-18T05:03:28.527Z,96900.19
2019-05-18T05:04:31.885Z,96896.69
2019-05-18T05:05:34.769Z,96902.70
2019-05-18T05:06:38.373Z,96901.80
2019-05-18T05:07:41.206Z,96908.89
2019-05-18T05:08:45.099Z,96908.89
2019-05-18T05:09:48.018Z,96902.19
2019-05-18T05:10:51.892Z,96902.45
2019-05-18T05:11:54.738Z,96895.41
2019-05-18T05:12:58.424Z,96904.58
2019-05-18T05:14:01.409Z,96898.63
2019-05-18T05:15:05.220Z,96898.63
2019-05-18T05:16:13.083Z,96902.66
2019-05-18T05:17:19.418Z,96899.39
2019-05-18T05:18:25.747Z,96897.34
2019-05-18T05:19:29.416Z,96896.39
2019-05-18T05:20:32.314Z,96897.30
2019-05-18T05:21:35.673Z,96893.99
2019-05-18T05:22:44.546Z,96893.14
2019-05-18T05:24:05.463Z,96892.59
2019-05-18T05:25:27.302Z,96896.42
2019-05-18T05:26:41.626Z,96896.63
2019-05-18T05:27:46.202Z,96890.27
2019-05-18T05:29:09.790Z,96891.26
2019-05-18T05:43:50.906Z,96892.03
2019-05-18T05:44:54.663Z,96891.12
2019-05-18T05:45:57.581Z,96891.12
2019-05-18T05:47:06.995Z,96888.97
2019-05-18T05:48:10.166Z,96898.95
2019-05-18T05:49:13.622Z,96889.48
2019-05-18T05:50:34.134Z,96885.18
2019-05-18T05:51:28.705Z,96888.35
2019-05-18T05:52:31.521Z,96889.78
2019-05-18T05:53:35.049Z,96890.07
2019-05-18T05:54:40.481Z,96883.96
2019-05-18T05:55:43.909Z,96883.96
2019-05-18T05:56:52.795Z,96892.63
2019-05-18T05:57:56.169Z,96889.98
2019-05-18T05:58:59.070Z,96890.83
2019-05-18T06:00:02.547Z,96890.83
2019-05-18T06:01:06.727Z,96896.87
2019-05-18T06:02:10.171Z,96899.23
2019-05-18T06:03:13.459Z,96890.05
2019-05-18T06:04:16.889Z,96890.05
2019-05-18T06:05:19.839Z,96899.44
2019-05-18T06:06:23.310Z,96891.70
2019-05-18T06:07:26.613Z,96891.70
2019-05-18T06:08:31.544Z,96897.27
2019-05-18T06:09:37.467Z,96896.64
2019-05-18T06:10:40.845Z,96898.01
2019-05-18T06:11:46.294Z,96897.72
2019-05-18T06:12:52.215Z,96898.44
2019-05-18T06:13:55.466Z,96898.44
2019-05-18T06:14:59.035Z,96893.22
2019-05-18T06:16:01.959Z,96882.44
2019-05-18T06:17:08.301Z,96882.44
2019-05-18T06:18:10.020Z,96886.86
2019-05-18T06:19:13.544Z,96887.02
2019-05-18T06:20:16.851Z,96887.31
2019-05-18T06:21:20.381Z,96887.31
2019-05-18T06:22:23.228Z,96888.38
2019-05-18T06:23:26.804Z,96884.37
2019-05-18T06:24:30.189Z,96884.37
2019-05-18T06:25:34.485Z,96882.83
2019-05-18T06:26:38.852Z,96883.48
2019-05-18T06:27:43.018Z,96885.49
2019-05-18T06:28:46.049Z,96890.30
2019-05-18T06:29:51.823Z,96890.30
2019-05-18T06:30:54.493Z,96886.60
2019-05-18T06:31:59.644Z,96882.13
2019-05-18T06:33:02.774Z,96889.77
2019-05-18T06:34:06.475Z,96889.77
2019-05-18T06:35:11.152Z,96889.30
2019-05-18T06:36:16.040Z,96891.27
2019-05-18T06:37:19.061Z,96891.66
2019-05-18T06:38:22.532Z,96889.83
2019-05-18T06:39:26.066Z,96886.89
2019-05-18T06:40:31.465Z,96886.89
2019-05-18T06:41:35.088Z,96889.97
2019-05-18T06:42:52.268Z,96889.97
2019-05-18T06:43:58.245Z,96888.05
2019-05-18T06:45:00.364Z,96888.05
2019-05-18T06:46:03.753Z,96884.57
2019-05-18T06:47:07.129Z,96875.51
2019-05-18T06:48:10.203Z,96886.85
2019-05-18T06:49:13.732Z,96886.85
2019-05-18T06:50:18.741Z,96879.88
2019-05-18T06:51:21.911Z,96893.09
2019-05-18T06:52:24.882Z,96887.09
2019-05-18T06:53:28.400Z,96885.80
2019-05-18T06:54:35.503Z,96885.80
2019-05-18T06:55:45.677Z,96891.09
2019-05-18T06:56:51.867Z,96891.09
2019-05-18T06:57:58.395Z,96884.34
2019-05-18T06:59:06.393Z,96890.98
2019-05-18T07:00:11.137Z,96888.73
2019-05-18T07:01:17.158Z,96888.73
2019-05-18T07:02:21.396Z,96892.02
2019-05-18T07:03:24.561Z,96889.63
2019-05-18T07:04:45.702Z,96870.68
2019-05-18T07:05:49.914Z,96878.90
2019-05-18T07:06:53.818Z,96878.90
2019-05-18T07:07:56.815Z,96886.05
2019-05-18T07:09:00.186Z,96884.67
2019-05-18T07:10:06.243Z,96889.23
2019-05-18T07:11:10.506Z,96889.02
2019-05-18T07:12:13.342Z,96889.02
2019-05-18T07:13:19.697Z,96883.95
2019-05-18T07:14:25.767Z,96884.78
2019-05-18T07:15:27.658Z,96886.95
2019-05-18T07:16:37.319Z,96886.95
2019-05-18T07:17:40.995Z,96888.67
2019-05-18T07:18:43.900Z,96886.48
2019-05-18T07:19:47.413Z,96889.64
2019-05-18T07:20:50.328Z,96889.64
2019-05-18T07:21:55.149Z,96888.21
2019-05-18T07:22:57.950Z,96884.81
2019-05-18T07:24:01.759Z,96882.58
2019-05-18T07:25:04.609Z,96882.58
2019-05-18T07:26:08.071Z,96879.16
2019-05-18T07:27:11.003Z,96880.43
2019-05-18T07:28:14.399Z,96880.43
2019-05-18T07:29:20.162Z,96885.61
2019-05-18T07:30:23.849Z,96877.28
2019-05-18T07:31:29.831Z,96880.30
2019-05-18T07:32:33.305Z,96875.94
2019-05-18T07:33:36.163Z,96872.16
2019-05-18T07:34:41.814Z,96882.97
2019-05-18T07:35:45.320Z,96877.20
2019-05-18T07:36:50.134Z,96883.98
2019-05-18T07:37:53.020Z,96878.64
2019-05-18T07:38:56.446Z,96879.48
2019-05-18T07:40:02.377Z,96881.17
2019-05-18T07:41:05.945Z,96884.74
2019-05-18T07:42:08.796Z,96869.20
2019-05-18T07:43:12.698Z,96878.91
2019-05-18T07:44:15.570Z,96887.60
2019-05-18T07:45:19.034Z,96884.36
2019-05-18T07:46:21.836Z,96888.02
2019-05-18T07:47:25.298Z,96878.64
2019-05-18T07:48:45.748Z,96878.64
2019-05-18T07:49:49.166Z,96886.02
2019-05-18T07:50:52.015Z,96888.71
2019-05-18T07:51:55.405Z,96891.22
2019-05-18T07:52:58.700Z,96891.22
2019-05-18T07:54:02.226Z,96891.05
2019-05-18T07:55:05.527Z,96891.02
2019-05-18T07:56:08.940Z,96882.64
2019-05-18T07:57:11.793Z,96882.64
2019-05-18T07:58:15.615Z,96892.12
2019-05-18T07:59:19.990Z,96889.48
2019-05-18T08:00:24.230Z,96884.37
2019-05-18T08:01:27.492Z,96884.37
2019-05-18T08:02:37.894Z,96885.55
2019-05-18T08:03:40.661Z,96892.13
2019-05-18T08:04:44.086Z,96885.57
2019-05-18T08:05:51.650Z,96887.28
2019-05-18T08:06:58.595Z,96889.75
2019-05-18T08:08:04.485Z,96874.83
2019-05-18T08:09:07.854Z,96887.28
2019-05-18T08:10:11.785Z,96888.11
2019-05-18T08:11:15.638Z,96887.09
2019-05-18T08:12:19.606Z,96886.55
2019-05-18T08:13:28.727Z,96886.55
2019-05-18T08:14:33.995Z,96885.80
2019-05-18T08:15:37.765Z,96882.98
2019-05-18T08:16:40.666Z,96883.55
2019-05-18T08:17:49.066Z,96884.30
2019-05-18T08:18:51.919Z,96877.95
2019-05-18T08:19:55.850Z,96877.95
2019-05-18T08:21:00.911Z,96878.33
2019-05-18T08:22:06.758Z,96873.44
2019-05-18T08:23:09.710Z,96874.86
2019-05-18T08:24:13.059Z,96882.91
2019-05-18T08:25:31.934Z,96882.91
2019-05-18T08:26:35.524Z,96876.83
2019-05-18T08:27:42.812Z,96874.86
2019-05-18T08:28:46.271Z,96878.19
2019-05-18T08:29:49.267Z,96875.33
2019-05-18T08:30:54.883Z,96871.61
2019-05-18T08:31:58.145Z,96874.32
2019-05-18T08:33:01.566Z,96873.47
2019-05-18T08:34:07.267Z,96877.41
2019-05-18T08:35:11.527Z,96876.84
2019-05-18T08:36:14.409Z,96872.86
2019-05-18T08:37:17.843Z,96876.09
2019-05-18T08:38:21.074Z,96883.20
2019-05-18T08:39:27.742Z,96883.20
2019-05-18T08:40:30.720Z,96881.59
2019-05-18T08:41:37.151Z,96881.70
2019-05-18T08:42:43.018Z,96890.00
2019-05-18T08:43:46.419Z,96882.17
2019-05-18T08:44:53.874Z,96882.95
2019-05-18T08:45:57.964Z,96881.44
2019-05-18T08:47:01.637Z,96881.44
2019-05-18T08:48:06.410Z,96876.17
2019-05-18T08:49:14.305Z,96885.25
2019-05-18T08:50:19.782Z,96885.25
2019-05-18T08:51:24.516Z,96879.59
2019-05-18T08:52:27.734Z,96880.81
2019-05-18T08:53:30.688Z,96876.69
2019-05-18T08:54:38.638Z,96876.69
2019-05-18T08:55:43.671Z,96883.86
2019-05-18T08:56:47.015Z,96889.00
2019-05-18T08:57:52.249Z,96887.66
2019-05-18T08:58:55.269Z,96887.66
2019-05-18T09:00:00.183Z,96877.28
2019-05-18T09:01:03.665Z,96873.66
2019-05-18T09:02:06.481Z,96871.85
2019-05-18T09:03:09.837Z,96881.44
2019-05-18T09:04:12.966Z,96872.70
2019-05-18T09:05:16.454Z,96870.89
2019-05-18T09:06:19.384Z,96870.89
2019-05-18T09:07:22.728Z,96871.47
2019-05-18T09:08:26.835Z,96870.80
2019-05-18T09:09:32.913Z,96876.48
2019-05-18T09:10:36.538Z,96879.52
2019-05-18T09:11:42.635Z,96872.76
2019-05-18T09:12:45.437Z,96877.87
2019-05-18T09:13:55.104Z,96877.87
2019-05-18T09:15:00.410Z,96875.02
2019-05-18T09:16:03.489Z,96875.02
2019-05-18T09:17:06.450Z,96872.33
2019-05-18T09:18:11.386Z,96872.33
2019-05-18T09:19:14.412Z,96881.41
2019-05-18T09:20:22.075Z,96881.41
2019-05-18T09:21:24.951Z,96877.19
2019-05-18T09:22:29.725Z,96877.19
2019-05-18T09:23:37.021Z,96882.36
2019-05-18T09:24:42.087Z,96882.36
2019-05-18T09:25:50.442Z,96871.98
2019-05-18T09:26:54.204Z,96886.64
2019-05-18T09:28:06.186Z,96886.64
2019-05-18T09:29:09.551Z,96873.61
2019-05-18T09:30:13.029Z,96873.61
2019-05-18T09:31:16.530Z,96872.64
2019-05-18T09:32:20.527Z,96872.64
2019-05-18T09:33:26.960Z,96869.95
2019-05-18T09:34:29.691Z,96868.77
2019-05-18T09:35:39.996Z,96885.94
2019-05-18T09:36:45.172Z,96875.66
2019-05-18T09:37:48.768Z,96871.73
2019-05-18T09:38:51.755Z,96873.03
2019-05-18T09:39:56.427Z,96882.11
2019-05-18T09:41:01.823Z,96888.56
2019-05-18T09:42:05.521Z,96876.53
2019-05-18T09:43:11.380Z,96895.71
2019-05-18T09:44:20.072Z,96881.48
2019-05-18T09:45:26.024Z,96879.95
2019-05-18T09:46:29.260Z,96886.64
2019-05-18T09:47:34.766Z,96877.48
2019-05-18T09:48:38.102Z,96876.73
2019-05-18T09:49:41.805Z,96870.30
2019-05-18T09:50:48.228Z,96880.90
2019-05-18T09:51:51.186Z,96873.69
2019-05-18T09:52:54.562Z,96871.19
2019-05-18T09:54:00.445Z,96871.19
2019-05-18T09:55:06.914Z,96879.16
2019-05-18T09:56:13.257Z,96879.16
2019-05-18T09:57:23.279Z,96863.92
2019-05-18T09:58:37.831Z,96869.31
2019-05-18T09:59:45.318Z,96871.50
2019-05-18T10:00:48.216Z,96877.19
2019-05-18T10:01:56.375Z,96874.63
2019-05-18T10:02:59.492Z,96870.58
2019-05-18T10:04:08.114Z,96878.52
2019-05-18T10:05:13.442Z,96878.52
2019-05-18T10:06:19.669Z,96873.84
2019-05-18T10:07:28.876Z,96875.42
2019-05-18T10:08:32.373Z,96871.48
2019-05-18T10:09:39.424Z,96871.48
2019-05-18T10:10:42.336Z,96877.48
2019-05-18T10:11:46.513Z,96872.28
2019-05-18T10:12:58.429Z,96880.58
2019-05-18T10:14:02.859Z,96882.42
2019-05-18T10:15:06.146Z,96882.95
2019-05-18T10:16:14.232Z,96874.15
2019-05-18T10:17:17.851Z,96876.36
2019-05-18T10:18:21.919Z,96876.36
2019-05-18T10:19:27.377Z,96872.21
2019-05-18T10:20:30.108Z,96878.09
2019-05-18T10:21:33.524Z,96874.33
2019-05-18T10:22:36.847Z,96869.73
2019-05-18T10:23:42.253Z,96875.09
2019-05-18T10:24:45.263Z,96872.64
2019-05-18T10:25:48.613Z,96873.45
2019-05-18T10:26:51.501Z,96873.45
2019-05-18T10:27:55.004Z,96876.33
2019-05-18T10:28:57.787Z,96876.47
2019-05-18T10:42:52.498Z,96866.57
2019-05-18T10:43:57.225Z,96868.71
2019-05-18T10:45:00.257Z,96880.06
2019-05-18T10:46:04.164Z,96880.06
2019-05-18T10:47:07.303Z,96860.57
2019-05-18T10:48:11.107Z,96865.22
2019-05-18T10:49:14.423Z,96865.22
2019-05-18T10:50:17.866Z,96852.45
2019-05-18T10:51:23.110Z,96852.45
2019-05-18T10:52:29.143Z,96861.22
2019-05-18T10:53:31.944Z,96861.22
2019-05-18T10:54:39.340Z,96863.74
2019-05-18T10:55:44.185Z,96864.56
2019-05-18T10:56:47.282Z,96865.66
2019-05-18T10:57:55.783Z,96842.16
2019-05-18T10:58:59.207Z,96855.59
2019-05-18T11:00:04.104Z,96859.14
2019-05-18T11:01:10.241Z,96859.14
2019-05-18T11:02:15.295Z,96853.63
2019-05-18T11:03:18.637Z,96853.63
2019-05-18T11:04:24.288Z,96855.18
2019-05-18T11:05:27.794Z,96859.34
2019-05-18T11:06:32.234Z,96861.77
2019-05-18T11:07:37.110Z,96861.77
2019-05-18T11:08:39.994Z,96863.95
2019-05-18T11:09:45.043Z,96860.41
2019-05-18T11:10:49.708Z,96857.64
2019-05-18T11:11:54.376Z,96856.63
2019-05-18T11:13:00.278Z,96856.63
2019-05-18T11:14:04.425Z,96844.87
2019-05-18T11:15:07.775Z,96842.83
2019-05-18T11:16:11.288Z,96850.95
2019-05-18T11:17:22.008Z,96845.63
2019-05-18T11:18:25.372Z,96844.12
2019-05-18T11:19:28.212Z,96848.48
2019-05-18T11:20:34.987Z,96848.82
2019-05-18T11:21:38.934Z,96844.20
2019-05-18T11:22:42.302Z,96843.77
2019-05-18T11:23:48.058Z,96847.16
2019-05-18T11:24:51.563Z,96844.40
2019-05-18T11:25:56.382Z,96844.40
2019-05-18T11:27:00.005Z,96841.59
2019-05-18T11:28:03.289Z,96837.34
2019-05-18T11:29:06.711Z,96840.48
2019-05-18T11:30:09.834Z,96832.30
2019-05-18T11:31:13.548Z,96832.30
2019-05-18T11:32:18.574Z,96841.52
2019-05-18T11:33:22.675Z,96845.08
2019-05-18T11:34:25.514Z,96845.08
2019-05-18T11:35:31.249Z,96832.83
2019-05-18T11:36:37.238Z,96834.92
2019-05-18T11:37:40.658Z,96835.86
2019-05-18T11:38:46.818Z,96833.59
2019-05-18T11:39:50.227Z,96835.60
2019-05-18T11:40:53.686Z,96835.60
2019-05-18T11:41:58.231Z,96837.09
2019-05-18T11:43:01.552Z,96836.44
2019-05-18T11:44:10.782Z,96836.44
2019-05-18T11:45:14.682Z,96842.09
2019-05-18T11:46:33.467Z,96837.88
2019-05-18T11:47:36.252Z,96845.00
2019-05-18T11:48:39.829Z,96847.92
2019-05-18T11:49:42.740Z,96846.05
2019-05-18T11:50:47.579Z,96848.27
2019-05-18T11:51:50.540Z,96844.58
2019-05-18T11:52:53.973Z,96832.06
2019-05-18T11:53:59.515Z,96841.31
2019-05-18T11:55:04.506Z,96841.31
2019-05-18T11:56:07.555Z,96840.30
2019-05-18T11:57:14.773Z,96834.59
2019-05-18T11:58:18.217Z,96834.07
2019-05-18T11:59:24.048Z,96834.10
2019-05-18T12:00:32.230Z,96834.10
2019-05-18T12:01:33.244Z,96833.81
2019-05-18T12:02:39.777Z,96833.81
2019-05-18T12:03:46.381Z,96838.04
2019-05-18T12:04:50.179Z,96839.63
2019-05-18T12:06:02.861Z,96840.08
2019-05-18T12:07:06.320Z,96834.52
2019-05-18T12:08:09.829Z,96832.95
2019-05-18T12:09:12.696Z,96832.95
2019-05-18T12:10:18.329Z,96833.69
2019-05-18T12:11:24.237Z,96833.69
2019-05-18T12:12:29.046Z,96829.41
2019-05-18T12:13:32.158Z,96835.30
2019-05-18T12:14:37.880Z,96832.78
2019-05-18T12:15:43.769Z,96832.78
2019-05-18T12:16:47.624Z,96829.51
2019-05-18T12:17:50.679Z,96829.51
2019-05-18T12:18:57.748Z,96830.23
2019-05-18T12:20:04.162Z,96825.65
2019-05-18T12:21:07.979Z,96827.08
2019-05-18T12:22:11.148Z,96827.23
2019-05-18T12:23:14.908Z,96828.72
2019-05-18T12:24:17.877Z,96826.11
2019-05-18T12:25:21.360Z,96826.11
2019-05-18T12:26:24.271Z,96832.87
2019-05-18T12:27:28.415Z,96831.98
2019-05-18T12:28:31.591Z,96831.98
2019-05-18T12:29:35.388Z,96834.12
2019-05-18T12:30:39.918Z,96834.12
2019-05-18T12:31:43.595Z,96829.53
2019-05-18T12:32:46.411Z,96831.03
2019-05-18T12:33:50.015Z,96831.98
2019-05-18T12:34:59.911Z,96828.48
2019-05-18T12:36:03.370Z,96828.48
2019-05-18T12:37:06.545Z,96832.00
2019-05-18T12:38:16.395Z,96832.22
2019-05-18T12:39:22.204Z,96826.30
2019-05-18T12:40:28.050Z,96832.59
2019-05-18T12:41:31.539Z,96832.41
2019-05-18T12:42:39.427Z,96819.03
2019-05-18T12:43:42.398Z,96823.79
2019-05-18T12:44:51.564Z,96822.59
2019-05-18T12:45:57.243Z,96826.42
2019-05-18T12:47:03.244Z,96826.42
2019-05-18T12:48:12.923Z,96828.92
2019-05-18T12:49:19.118Z,96823.03
2019-05-18T12:50:24.190Z,96826.86
2019-05-18T12:51:27.566Z,96829.08
2019-05-18T12:52:31.962Z,96829.08
2019-05-18T12:53:35.315Z,96825.09
2019-05-18T12:54:46.117Z,96829.31
2019-05-18T12:55:44.650Z,96827.86
2019-05-18T12:56:53.046Z,96809.92
2019-05-18T12:57:56.358Z,96818.39
2019-05-18T12:59:01.842Z,96823.98
2019-05-18T13:00:07.672Z,96816.78
2019-05-18T13:01:13.828Z,96823.08
2019-05-18T13:02:20.299Z,96830.73
2019-05-18T13:03:23.240Z,96818.62